createdAt,value
2022-08-23T00:00:15.997Z,24.09
2022-08-23T00:02:45.791Z,24.01
2022-08-23T00:05:13.141Z,24.00
2022-08-23T00:07:43.625Z,23.98
2022-08-23T00:10:13.074Z,23.93
2022-08-23T00:12:41.978Z,23.92
2022-08-23T00:17:55.142Z,23.80
2022-08-23T00:20:22.440Z,23.75
2022-08-23T00:22:49.792Z,23.68
2022-08-23T00:25:17.478Z,23.67
2022-08-23T00:27:44.847Z,23.72
2022-08-23T00:30:12.824Z,23.72
2022-08-23T00:32:40.813Z,23.68
2022-08-23T00:35:10.023Z,23.75
2022-08-23T00:37:37.658Z,23.65
2022-08-23T00:40:06.322Z,23.63
2022-08-23T00:43:10.626Z,23.74
2022-08-23T00:45:59.632Z,23.85
2022-08-23T00:48:27.089Z,23.86
2022-08-23T00:51:00.477Z,23.83
2022-08-23T00:53:31.521Z,23.79
2022-08-23T00:56:00.361Z,23.76
2022-08-23T00:58:28.232Z,23.81
2022-08-23T01:00:56.831Z,23.77
2022-08-23T01:03:25.673Z,23.77
2022-08-23T01:05:55.068Z,23.72
2022-08-23T01:08:24.417Z,23.71
2022-08-23T01:11:03.633Z,23.65
2022-08-23T01:13:39.508Z,23.57
2022-08-23T01:16:16.864Z,23.59
2022-08-23T01:18:44.786Z,23.56
2022-08-23T01:21:15.904Z,23.55
2022-08-23T01:23:45.593Z,23.57
2022-08-23T01:26:14.596Z,23.61
2022-08-23T01:28:51.246Z,23.61
2022-08-23T01:31:19.208Z,23.68
2022-08-23T01:33:52.008Z,23.65
2022-08-23T01:36:19.962Z,23.75
2022-08-23T01:38:49.541Z,23.87
2022-08-23T01:41:17.081Z,23.82
2022-08-23T01:43:44.506Z,23.88
2022-08-23T01:46:15.203Z,23.86
2022-08-23T01:48:42.564Z,23.88
2022-08-23T01:51:09.808Z,23.90
2022-08-23T01:53:37.137Z,23.87
2022-08-23T01:56:05.262Z,23.86
2022-08-23T01:58:35.910Z,23.92
2022-08-23T02:01:04.815Z,23.90
2022-08-23T02:03:33.983Z,23.90
2022-08-23T02:06:01.267Z,23.96
2022-08-23T02:08:47.388Z,23.97
2022-08-23T02:11:17.167Z,23.81
2022-08-23T02:13:47.567Z,23.74
2022-08-23T02:16:25.340Z,23.74
2022-08-23T02:18:53.304Z,23.77
2022-08-23T02:21:20.670Z,23.73
2022-08-23T02:23:48.908Z,23.74
2022-08-23T02:26:16.133Z,23.71
2022-08-23T02:28:46.059Z,23.73
2022-08-23T02:31:13.407Z,23.67
2022-08-23T02:33:41.580Z,23.72
2022-08-23T02:36:09.187Z,23.70
2022-08-23T02:38:36.859Z,23.80
2022-08-23T02:41:04.179Z,23.82
2022-08-23T02:43:31.767Z,23.90
2022-08-23T02:45:59.101Z,23.95
2022-08-23T02:48:27.080Z,23.94
2022-08-23T02:51:03.985Z,23.83
2022-08-23T02:53:31.472Z,23.72
2022-08-23T02:55:59.002Z,23.60
2022-08-23T02:58:26.378Z,23.61
2022-08-23T03:00:53.830Z,23.74
2022-08-23T03:03:23.826Z,23.76
2022-08-23T03:05:51.329Z,23.63
2022-08-23T03:08:20.986Z,23.48
2022-08-23T03:10:50.518Z,23.36
2022-08-23T03:13:18.316Z,23.24
2022-08-23T03:15:47.810Z,23.13
2022-08-23T03:18:15.458Z,23.10
2022-08-23T03:20:43.035Z,23.05
2022-08-23T03:23:11.754Z,22.96
2022-08-23T03:25:40.583Z,22.91
2022-08-23T03:28:16.805Z,22.87
2022-08-23T03:30:45.574Z,22.85
2022-08-23T03:33:13.767Z,22.90
2022-08-23T03:35:42.490Z,22.89
2022-08-23T03:38:13.921Z,22.91
2022-08-23T03:40:42.167Z,22.88
2022-08-23T03:43:10.126Z,22.97
2022-08-23T03:45:37.545Z,22.98
2022-08-23T03:48:04.990Z,22.94
2022-08-23T03:50:34.562Z,22.74
2022-08-23T03:53:02.099Z,22.69
2022-08-23T03:55:29.399Z,22.78
2022-08-23T03:57:57.280Z,22.87
2022-08-23T04:00:25.326Z,22.77
2022-08-23T04:02:54.112Z,22.74
2022-08-23T04:05:23.033Z,22.64
2022-08-23T04:07:50.234Z,22.66
2022-08-23T04:10:19.020Z,22.62
2022-08-23T04:12:50.124Z,22.56
2022-08-23T04:15:19.677Z,22.51
2022-08-23T04:17:48.212Z,22.46
2022-08-23T04:20:16.761Z,22.45
2022-08-23T04:22:54.587Z,22.33
2022-08-23T04:25:34.020Z,22.26
2022-08-23T04:28:03.941Z,22.36
2022-08-23T04:30:32.261Z,22.30
2022-08-23T04:32:59.947Z,22.18
2022-08-23T04:35:29.923Z,22.19
2022-08-23T04:37:57.333Z,22.18
2022-08-23T04:40:44.360Z,22.21
2022-08-23T04:43:13.534Z,22.14
2022-08-23T04:45:41.963Z,22.13
2022-08-23T04:48:16.455Z,22.10
2022-08-23T04:50:48.326Z,22.15
2022-08-23T04:53:19.240Z,22.17
2022-08-23T04:56:05.549Z,22.14
2022-08-23T04:58:33.530Z,22.08
2022-08-23T05:01:01.870Z,22.08
2022-08-23T05:03:29.856Z,22.13
2022-08-23T05:05:58.636Z,22.11
2022-08-23T05:08:33.038Z,22.12
2022-08-23T05:11:04.624Z,22.09
2022-08-23T05:13:34.669Z,22.19
2022-08-23T05:16:03.484Z,22.16
2022-08-23T05:18:34.488Z,22.13
2022-08-23T05:21:01.932Z,22.16
2022-08-23T05:23:31.743Z,22.12
2022-08-23T05:26:05.080Z,22.10
2022-08-23T05:28:41.350Z,22.17
2022-08-23T05:31:14.076Z,22.20
2022-08-23T05:33:45.916Z,22.25
2022-08-23T05:36:14.762Z,22.29
2022-08-23T05:38:42.429Z,22.40
2022-08-23T05:41:10.710Z,22.65
2022-08-23T05:43:38.143Z,22.71
2022-08-23T05:46:13.328Z,22.69
2022-08-23T05:48:48.932Z,22.63
2022-08-23T05:51:18.738Z,22.61
2022-08-23T05:53:47.369Z,22.57
2022-08-23T05:56:14.580Z,22.64
2022-08-23T05:58:42.344Z,22.80
2022-08-23T06:01:10.282Z,22.83
2022-08-23T06:03:37.913Z,23.06
2022-08-23T06:06:05.247Z,23.10
2022-08-23T06:08:34.153Z,23.18
2022-08-23T06:11:01.377Z,23.08
2022-08-23T06:13:34.187Z,23.24
2022-08-23T06:16:14.235Z,23.26
2022-08-23T06:18:44.477Z,23.33
2022-08-23T06:21:51.330Z,23.35
2022-08-23T06:24:26.654Z,23.43
2022-08-23T06:27:13.961Z,23.47
2022-08-23T06:29:42.617Z,23.63
2022-08-23T06:32:29.027Z,23.68
2022-08-23T06:35:38.253Z,23.73
2022-08-23T06:38:07.212Z,23.78
2022-08-23T06:41:08.184Z,23.97
2022-08-23T06:43:48.842Z,23.98
2022-08-23T06:46:33.339Z,24.06
2022-08-23T06:49:05.052Z,24.22
2022-08-23T06:51:43.440Z,24.21
2022-08-23T06:54:31.466Z,24.12
2022-08-23T06:57:08.778Z,24.06
2022-08-23T07:00:12.117Z,24.14
2022-08-23T07:03:11.697Z,24.23
2022-08-23T07:05:57.600Z,24.11
2022-08-23T07:08:28.472Z,24.27
2022-08-23T07:10:56.190Z,24.48
2022-08-23T07:13:23.511Z,24.48
2022-08-23T07:15:50.921Z,24.46
2022-08-23T07:18:20.897Z,24.46
2022-08-23T07:20:49.045Z,24.60
2022-08-23T07:23:17.679Z,24.51
2022-08-23T07:25:45.457Z,24.55
2022-08-23T07:28:16.368Z,24.37
2022-08-23T07:30:45.395Z,24.49
2022-08-23T07:33:13.933Z,24.57
2022-08-23T07:35:59.730Z,24.74
2022-08-23T07:38:29.925Z,24.87
2022-08-23T07:40:58.664Z,24.84
2022-08-23T07:43:25.941Z,25.01
2022-08-23T07:45:53.861Z,25.17
2022-08-23T07:48:43.198Z,25.24
2022-08-23T07:51:17.617Z,25.21
2022-08-23T07:53:48.257Z,25.01
2022-08-23T07:56:18.589Z,24.90
2022-08-23T07:59:07.642Z,24.96
2022-08-23T08:01:41.218Z,24.96
2022-08-23T08:04:08.813Z,25.07
2022-08-23T08:06:41.267Z,25.15
2022-08-23T08:09:09.626Z,25.21
2022-08-23T08:11:36.950Z,25.36
2022-08-23T08:14:06.531Z,25.37
2022-08-23T08:16:38.011Z,25.47
2022-08-23T08:19:08.432Z,25.41
2022-08-23T08:22:13.706Z,25.44
2022-08-23T08:25:04.630Z,25.45
2022-08-23T08:27:33.945Z,25.63
2022-08-23T08:30:04.373Z,25.72
2022-08-23T08:32:32.095Z,25.73
2022-08-23T08:35:00.019Z,25.81
2022-08-23T08:37:27.670Z,25.93
2022-08-23T08:39:55.373Z,26.36
2022-08-23T08:42:24.993Z,26.53
2022-08-23T08:44:57.160Z,26.58
2022-08-23T08:47:37.338Z,26.62
2022-08-23T08:50:07.957Z,26.56
2022-08-23T08:52:37.443Z,26.54
2022-08-23T08:55:10.709Z,26.87
2022-08-23T08:57:40.812Z,27.01
2022-08-23T09:00:09.341Z,27.06
2022-08-23T09:02:39.195Z,27.03
2022-08-23T09:05:14.652Z,27.07
2022-08-23T09:07:42.257Z,27.70
2022-08-23T09:10:19.800Z,29.43
2022-08-23T09:13:22.235Z,30.36
2022-08-23T09:15:50.418Z,29.36
2022-08-23T09:18:17.765Z,28.96
2022-08-23T09:20:47.108Z,29.67
2022-08-23T09:23:17.694Z,29.89
2022-08-23T09:26:02.640Z,30.29
2022-08-23T09:28:34.891Z,30.19
2022-08-23T09:31:03.265Z,29.38
2022-08-23T09:33:40.417Z,28.84
2022-08-23T09:36:18.439Z,28.36
2022-08-23T09:38:57.089Z,28.49
2022-08-23T09:41:28.650Z,28.42
2022-08-23T09:44:01.791Z,28.17
2022-08-23T09:46:35.822Z,28.24
2022-08-23T09:49:20.445Z,27.94
2022-08-23T09:51:48.328Z,27.98
2022-08-23T09:54:20.884Z,28.08
2022-08-23T09:56:54.295Z,28.19
2022-08-23T09:59:27.728Z,28.21
2022-08-23T10:02:02.567Z,27.89
2022-08-23T10:04:37.694Z,27.88
2022-08-23T10:07:24.679Z,27.92
2022-08-23T10:09:54.477Z,27.80
2022-08-23T10:12:22.883Z,27.97
2022-08-23T10:14:51.375Z,28.01
2022-08-23T10:17:42.102Z,27.96
2022-08-23T10:20:09.485Z,27.88
2022-08-23T10:22:44.442Z,27.91
2022-08-23T10:25:30.124Z,28.05
2022-08-23T10:28:22.910Z,28.03
2022-08-23T10:31:14.045Z,28.17
2022-08-23T10:33:41.376Z,28.10
2022-08-23T10:36:18.701Z,28.18
2022-08-23T10:38:51.215Z,28.30
2022-08-23T10:41:38.481Z,28.32
2022-08-23T10:44:09.109Z,28.40
2022-08-23T10:46:39.902Z,28.28
2022-08-23T10:49:11.220Z,28.32
2022-08-23T10:51:42.855Z,28.30
2022-08-23T10:54:16.316Z,28.22
2022-08-23T10:56:51.055Z,28.01
2022-08-23T10:59:21.503Z,28.11
2022-08-23T11:01:59.874Z,28.17
2022-08-23T11:04:34.564Z,27.95
2022-08-23T11:07:19.645Z,27.70
2022-08-23T11:09:50.979Z,27.83
2022-08-23T11:12:21.850Z,27.89
2022-08-23T11:14:56.940Z,27.87
2022-08-23T11:17:28.286Z,27.96
2022-08-23T11:20:00.654Z,27.93
2022-08-23T11:22:31.530Z,28.18
2022-08-23T11:25:05.608Z,28.16
2022-08-23T11:27:41.009Z,28.13
2022-08-23T11:30:38.585Z,28.21
2022-08-23T11:33:11.001Z,28.30
2022-08-23T11:35:43.038Z,28.30
2022-08-23T11:38:12.802Z,28.33
2022-08-23T11:40:51.610Z,28.35
2022-08-23T11:43:29.145Z,28.44
2022-08-23T11:46:13.904Z,28.40
2022-08-23T11:48:44.611Z,28.31
2022-08-23T11:51:32.201Z,28.37
2022-08-23T11:54:26.582Z,28.49
2022-08-23T11:57:14.634Z,28.56
2022-08-23T11:59:55.694Z,28.50
2022-08-23T12:02:34.079Z,28.59
2022-08-23T12:05:08.860Z,28.70
2022-08-23T12:07:47.512Z,28.74
2022-08-23T12:10:15.929Z,28.70
2022-08-23T12:13:06.501Z,28.79
2022-08-23T12:15:53.597Z,28.87
2022-08-23T12:18:25.150Z,28.83
2022-08-23T12:20:57.949Z,28.64
2022-08-23T12:23:25.201Z,28.72
2022-08-23T12:26:14.732Z,28.79
2022-08-23T12:28:48.082Z,28.81
2022-08-23T12:31:25.874Z,28.90
2022-08-23T12:33:53.743Z,28.93
2022-08-23T12:36:36.723Z,28.95
2022-08-23T12:39:07.931Z,28.92
2022-08-23T12:42:04.521Z,28.96
2022-08-23T12:44:34.393Z,28.97
2022-08-23T12:47:31.584Z,28.93
2022-08-23T12:50:04.865Z,28.98
2022-08-23T12:52:33.956Z,28.88
2022-08-23T12:55:01.256Z,28.69
2022-08-23T12:57:34.641Z,28.74
2022-08-23T13:00:17.546Z,28.95
2022-08-23T13:02:56.388Z,28.89
2022-08-23T13:05:37.668Z,28.85
2022-08-23T13:08:07.930Z,28.89
2022-08-23T13:10:37.503Z,28.94
2022-08-23T13:13:05.059Z,28.94
2022-08-23T13:16:00.505Z,29.00
2022-08-23T13:18:30.516Z,28.96
2022-08-23T13:21:17.536Z,28.97
2022-08-23T13:23:47.929Z,29.03
2022-08-23T13:26:34.142Z,29.12
2022-08-23T13:29:04.504Z,29.13
2022-08-23T13:31:50.690Z,29.08
2022-08-23T13:34:34.472Z,29.05
2022-08-23T13:37:02.898Z,28.89
2022-08-23T13:39:30.911Z,28.91
2022-08-23T13:41:58.167Z,28.82
2022-08-23T13:44:35.189Z,28.79
2022-08-23T13:47:02.995Z,28.81
2022-08-23T13:49:30.313Z,28.83
2022-08-23T13:52:33.449Z,28.93
2022-08-23T13:54:51.291Z,29.06
2022-08-23T13:57:21.033Z,28.76
2022-08-23T13:59:50.501Z,28.80
2022-08-23T14:02:18.748Z,28.86
2022-08-23T14:04:46.279Z,28.92
2022-08-23T14:07:13.727Z,28.98
2022-08-23T14:09:41.416Z,28.95
2022-08-23T14:12:14.077Z,28.97
2022-08-23T14:14:42.257Z,28.97
2022-08-23T14:17:12.803Z,28.98
2022-08-23T14:22:31.323Z,28.96
2022-08-23T14:24:58.653Z,28.96
2022-08-23T14:27:25.884Z,28.98
2022-08-23T14:29:54.362Z,28.94
2022-08-23T14:32:21.710Z,28.91
2022-08-23T14:34:49.014Z,28.93
2022-08-23T14:40:04.590Z,28.97
2022-08-23T14:42:32.243Z,28.95
2022-08-23T14:45:00.117Z,28.93
2022-08-23T14:47:27.502Z,28.87
2022-08-23T14:49:54.865Z,28.89
2022-08-23T14:52:22.430Z,28.79
2022-08-23T14:54:49.835Z,28.93
2022-08-23T14:57:17.229Z,28.97
2022-08-23T14:59:44.498Z,28.95
2022-08-23T15:02:13.452Z,28.94
2022-08-23T15:04:41.736Z,28.95
2022-08-23T15:07:18.723Z,28.96
2022-08-23T15:09:47.596Z,28.94
2022-08-23T15:15:04.080Z,29.01
2022-08-23T15:17:31.943Z,29.00
2022-08-23T15:19:59.497Z,29.02
2022-08-23T15:22:26.791Z,28.86
2022-08-23T15:24:53.977Z,28.80
2022-08-23T15:27:22.043Z,28.77
2022-08-23T15:29:52.401Z,28.78
2022-08-23T15:32:22.529Z,28.79
2022-08-23T15:34:50.498Z,28.77
2022-08-23T15:37:20.615Z,28.79
2022-08-23T15:39:48.407Z,28.80
2022-08-23T15:42:20.141Z,28.81
2022-08-23T15:44:48.740Z,28.82
2022-08-23T15:47:24.846Z,28.84
2022-08-23T15:49:52.337Z,28.82
2022-08-23T15:52:20.109Z,28.80
2022-08-23T15:54:47.666Z,28.82
2022-08-23T15:57:16.907Z,28.82
2022-08-23T15:59:44.467Z,28.77
2022-08-23T16:02:12.205Z,28.83
2022-08-23T16:04:39.473Z,28.79
2022-08-23T16:07:08.950Z,28.77
2022-08-23T16:09:36.699Z,28.75
2022-08-23T16:12:04.998Z,28.77
2022-08-23T16:14:32.594Z,28.79
2022-08-23T16:17:00.430Z,28.78
2022-08-23T16:19:28.545Z,28.72
2022-08-23T16:21:56.500Z,28.70
2022-08-23T16:24:24.634Z,28.69
2022-08-23T16:26:52.210Z,28.69
2022-08-23T16:29:20.377Z,28.66
2022-08-23T16:31:47.918Z,28.69
2022-08-23T16:34:18.102Z,28.67
2022-08-23T16:36:47.624Z,28.63
2022-08-23T16:39:15.739Z,28.60
2022-08-23T16:41:43.024Z,28.58
2022-08-23T16:44:10.397Z,28.55
2022-08-23T16:46:41.233Z,28.52
2022-08-23T16:49:09.373Z,28.49
2022-08-23T16:51:36.867Z,28.48
2022-08-23T16:54:04.924Z,28.48
2022-08-23T16:56:33.486Z,28.45
2022-08-23T16:59:01.289Z,28.44
2022-08-23T17:01:29.482Z,28.38
2022-08-23T17:04:30.486Z,28.37
2022-08-23T17:06:58.829Z,28.37
2022-08-23T17:09:27.524Z,28.35
2022-08-23T17:11:55.109Z,28.33
2022-08-23T17:14:24.164Z,28.31
2022-08-23T17:16:51.508Z,28.28
2022-08-23T17:19:18.970Z,28.27
2022-08-23T17:21:46.251Z,28.24
2022-08-23T17:24:13.517Z,28.22
2022-08-23T17:26:40.758Z,28.21
2022-08-23T17:29:09.465Z,28.27
2022-08-23T17:31:37.811Z,28.21
2022-08-23T17:34:06.882Z,28.17
2022-08-23T17:36:39.646Z,28.13
2022-08-23T17:39:08.588Z,28.10
2022-08-23T17:41:35.960Z,28.06
2022-08-23T17:44:04.238Z,28.04
2022-08-23T17:46:34.434Z,28.00
2022-08-23T17:49:01.734Z,27.95
2022-08-23T17:51:29.005Z,27.92
2022-08-23T17:53:56.677Z,27.88
2022-08-23T17:56:24.320Z,27.85
2022-08-23T17:58:54.865Z,27.83
2022-08-23T18:01:22.175Z,27.86
2022-08-23T18:03:49.987Z,27.81
2022-08-23T18:06:18.619Z,27.76
2022-08-23T18:08:46.405Z,27.68
2022-08-23T18:11:14.149Z,27.66
2022-08-23T18:13:41.454Z,27.64
2022-08-23T18:16:08.886Z,27.59
2022-08-23T18:18:36.203Z,27.58
2022-08-23T18:21:04.915Z,27.53
2022-08-23T18:23:32.121Z,27.51
2022-08-23T18:26:04.583Z,27.51
2022-08-23T18:28:33.133Z,27.54
2022-08-23T18:31:03.922Z,27.61
2022-08-23T18:33:46.470Z,27.55
2022-08-23T18:36:15.644Z,27.40
2022-08-23T18:38:42.972Z,27.31
2022-08-23T18:41:11.724Z,27.27
2022-08-23T18:43:39.117Z,27.27
2022-08-23T18:46:08.490Z,27.18
2022-08-23T18:48:36.324Z,27.19
2022-08-23T18:51:04.269Z,27.26
2022-08-23T18:53:31.879Z,27.26
2022-08-23T18:55:59.328Z,27.30
2022-08-23T18:58:27.219Z,27.30
2022-08-23T19:00:56.184Z,27.19
2022-08-23T19:03:23.542Z,27.21
2022-08-23T19:05:50.881Z,27.10
2022-08-23T19:08:20.845Z,27.04
2022-08-23T19:10:48.085Z,27.01
2022-08-23T19:13:15.667Z,27.06
2022-08-23T19:15:42.885Z,26.99
2022-08-23T19:18:10.945Z,26.99
2022-08-23T19:20:38.863Z,27.02
2022-08-23T19:23:06.060Z,27.06
2022-08-23T19:25:34.012Z,27.03
2022-08-23T19:28:01.280Z,26.98
2022-08-23T19:30:28.745Z,26.91
2022-08-23T19:32:56.739Z,26.72
2022-08-23T19:35:24.376Z,26.66
2022-08-23T19:37:51.574Z,26.49
2022-08-23T19:40:19.256Z,26.42
2022-08-23T19:42:46.655Z,26.36
2022-08-23T19:45:13.978Z,26.22
2022-08-23T19:47:41.857Z,26.17
2022-08-23T19:50:13.114Z,26.14
2022-08-23T19:52:41.351Z,26.08
2022-08-23T19:55:09.125Z,26.05
2022-08-23T19:57:37.479Z,25.92
2022-08-23T20:00:10.610Z,25.93
2022-08-23T20:02:37.813Z,25.95
2022-08-23T20:05:06.754Z,25.95
2022-08-23T20:07:35.215Z,25.98
2022-08-23T20:10:03.593Z,25.89
2022-08-23T20:12:33.034Z,25.85
2022-08-23T20:15:00.620Z,25.86
2022-08-23T20:17:28.069Z,25.88
2022-08-23T20:19:55.460Z,25.86
2022-08-23T20:22:41.797Z,25.97
2022-08-23T20:25:10.277Z,26.05
2022-08-23T20:27:37.848Z,26.04
2022-08-23T20:30:06.179Z,26.00
2022-08-23T20:32:33.941Z,26.05
2022-08-23T20:35:01.814Z,25.93
2022-08-23T20:37:29.637Z,25.82
2022-08-23T20:39:57.030Z,25.85
2022-08-23T20:42:24.773Z,25.86
2022-08-23T20:44:52.064Z,25.85
2022-08-23T20:47:19.460Z,25.84
2022-08-23T20:49:46.813Z,25.87
2022-08-23T20:52:14.414Z,25.84
2022-08-23T20:54:42.180Z,25.64
2022-08-23T20:57:09.465Z,25.62
2022-08-23T20:59:39.907Z,25.54
2022-08-23T21:02:11.026Z,25.58
2022-08-23T21:04:38.245Z,25.54
2022-08-23T21:07:08.446Z,25.60
2022-08-23T21:09:35.902Z,25.62
2022-08-23T21:12:03.301Z,25.63
2022-08-23T21:14:30.517Z,25.69
2022-08-23T21:16:58.357Z,25.63
2022-08-23T21:19:25.643Z,25.64
2022-08-23T21:21:52.835Z,25.68
2022-08-23T21:24:20.170Z,25.73
2022-08-23T21:26:47.328Z,25.74
2022-08-23T21:29:14.979Z,25.69
2022-08-23T21:31:42.241Z,25.77
2022-08-23T21:34:09.756Z,25.72
2022-08-23T21:36:37.064Z,25.69
2022-08-23T21:39:04.782Z,25.68
2022-08-23T21:41:40.944Z,25.65
2022-08-23T21:44:10.635Z,25.63
2022-08-23T21:46:38.230Z,25.60
2022-08-23T21:49:06.094Z,25.54
2022-08-23T21:51:34.963Z,25.56
2022-08-23T21:54:02.880Z,25.57
2022-08-23T21:56:31.165Z,25.58
2022-08-23T21:59:02.763Z,25.58
2022-08-23T22:01:30.599Z,25.61
2022-08-23T22:03:58.712Z,25.58
2022-08-23T22:06:27.328Z,25.47
2022-08-23T22:08:55.276Z,25.49
2022-08-23T22:11:24.043Z,25.56
2022-08-23T22:13:52.310Z,25.55
2022-08-23T22:16:20.025Z,25.46
2022-08-23T22:18:47.377Z,25.44
2022-08-23T22:21:14.622Z,25.38
2022-08-23T22:23:43.820Z,25.44
2022-08-23T22:26:11.721Z,25.50
2022-08-23T22:28:39.849Z,25.35
2022-08-23T22:31:07.276Z,25.28
2022-08-23T22:33:35.195Z,25.24
2022-08-23T22:36:07.013Z,25.24
2022-08-23T22:38:34.208Z,25.25
2022-08-23T22:41:01.422Z,25.25
2022-08-23T22:43:28.663Z,25.35
2022-08-23T22:45:57.346Z,25.25
2022-08-23T22:48:26.464Z,25.16
2022-08-23T22:51:04.347Z,25.10
2022-08-23T22:53:31.777Z,25.02
2022-08-23T22:55:59.182Z,24.97
2022-08-23T22:58:26.454Z,24.93
2022-08-23T23:00:53.673Z,24.89
2022-08-23T23:03:21.633Z,24.81
2022-08-23T23:05:49.760Z,24.77
2022-08-23T23:08:29.169Z,24.73
2022-08-23T23:11:02.627Z,24.68
2022-08-23T23:13:31.561Z,24.58
2022-08-23T23:16:02.208Z,24.55
2022-08-23T23:18:29.629Z,24.58
2022-08-23T23:20:58.964Z,24.55
2022-08-23T23:23:26.227Z,24.54
2022-08-23T23:25:53.793Z,24.46
2022-08-23T23:28:21.444Z,24.51
2022-08-23T23:30:53.232Z,24.63
2022-08-23T23:33:21.191Z,24.59
2022-08-23T23:35:49.254Z,24.47
2022-08-23T23:38:16.719Z,24.45
2022-08-23T23:40:44.300Z,24.48
2022-08-23T23:43:13.302Z,24.45
2022-08-23T23:45:42.403Z,24.44
2022-08-23T23:48:10.202Z,24.32
2022-08-23T23:50:42.657Z,24.20
2022-08-23T23:53:14.855Z,24.13
2022-08-23T23:55:42.316Z,24.09
2022-08-23T23:58:10.240Z,24.11
